createdAt,value
2023-03-26T00:01:58.384Z,93.41
2023-03-26T00:05:00.633Z,93.72
2023-03-26T00:08:02.878Z,93.50
2023-03-26T00:11:06.691Z,93.54
2023-03-26T00:14:13.835Z,93.21
2023-03-26T00:17:16.663Z,92.52
2023-03-26T00:20:18.975Z,92.55
2023-03-26T00:23:21.269Z,92.48
2023-03-26T00:26:24.097Z,92.39
2023-03-26T00:29:28.081Z,92.33
2023-03-26T00:32:30.923Z,92.10
2023-03-26T00:35:36.750Z,93.16
2023-03-26T00:38:39.509Z,92.23
2023-03-26T00:41:43.417Z,92.01
2023-03-26T00:44:46.142Z,91.86
2023-03-26T00:47:48.382Z,91.78
2023-03-26T00:50:50.880Z,92.27
2023-03-26T00:53:53.201Z,91.99
2023-03-26T00:56:56.028Z,92.00
2023-03-26T00:59:58.275Z,93.19
2023-03-26T01:03:02.564Z,93.71
2023-03-26T01:06:08.619Z,93.67
2023-03-26T01:09:18.815Z,94.40
2023-03-26T01:12:25.690Z,95.23
2023-03-26T01:15:30.069Z,94.83
2023-03-26T01:18:41.091Z,94.86
2023-03-26T01:21:44.151Z,94.73
2023-03-26T01:24:52.993Z,94.90
2023-03-26T01:27:56.696Z,95.58
2023-03-26T01:31:13.099Z,95.45
2023-03-26T01:34:30.746Z,95.27
2023-03-26T01:38:10.543Z,95.53
2023-03-26T01:41:39.007Z,95.94
2023-03-26T01:44:50.609Z,96.50
2023-03-26T01:47:53.276Z,96.56
2023-03-26T01:50:58.710Z,96.54
2023-03-26T01:54:08.808Z,96.08
2023-03-26T01:57:33.207Z,95.93
2023-03-26T02:01:12.756Z,96.12
2023-03-26T02:04:26.386Z,96.00
2023-03-26T02:07:47.943Z,95.85
2023-03-26T02:10:57.791Z,96.07
2023-03-26T02:14:00.580Z,96.55
2023-03-26T02:17:02.854Z,97.18
2023-03-26T02:20:06.078Z,97.72
2023-03-26T02:23:09.894Z,97.78
2023-03-26T02:26:14.589Z,98.16
2023-03-26T02:29:29.758Z,97.39
2023-03-26T02:32:32.872Z,97.21
2023-03-26T02:35:35.350Z,97.65
2023-03-26T02:38:38.575Z,97.79
2023-03-26T02:41:41.102Z,97.98
2023-03-26T02:44:46.238Z,98.04
2023-03-26T02:47:54.242Z,98.03
2023-03-26T02:50:59.468Z,98.13
2023-03-26T02:54:20.484Z,98.14
2023-03-26T02:57:41.649Z,98.65
2023-03-26T03:00:55.114Z,98.97
2023-03-26T03:04:05.439Z,99.39
2023-03-26T03:07:14.445Z,99.45
2023-03-26T03:10:21.970Z,99.99
2023-03-26T03:13:41.226Z,99.99
2023-03-26T03:16:43.745Z,99.86
2023-03-26T03:19:47.032Z,99.93
2023-03-26T03:22:49.587Z,99.99
2023-03-26T03:25:52.695Z,99.99
2023-03-26T03:28:57.535Z,99.99
2023-03-26T03:32:00.252Z,99.99
2023-03-26T03:35:12.978Z,99.99
2023-03-26T03:38:19.224Z,99.99
2023-03-26T03:41:24.609Z,99.99
2023-03-26T03:44:27.187Z,99.99
2023-03-26T03:47:29.769Z,99.99
2023-03-26T03:50:35.040Z,99.99
2023-03-26T03:53:55.969Z,99.99
2023-03-26T03:57:11.448Z,99.99
2023-03-26T04:00:24.529Z,99.99
2023-03-26T04:03:46.954Z,99.99
2023-03-26T04:06:52.252Z,99.99
2023-03-26T04:09:56.151Z,99.99
2023-03-26T04:12:59.979Z,99.99
2023-03-26T04:16:33.116Z,99.99
2023-03-26T04:19:36.062Z,99.99
2023-03-26T04:22:39.572Z,99.99
2023-03-26T04:25:54.623Z,99.99
2023-03-26T04:29:12.890Z,99.99
2023-03-26T04:32:34.289Z,99.99
2023-03-26T04:35:37.586Z,99.99
2023-03-26T04:38:49.439Z,99.99
2023-03-26T04:41:54.228Z,99.99
2023-03-26T04:45:03.205Z,99.99
2023-03-26T04:48:07.381Z,99.99
2023-03-26T04:51:17.953Z,99.99
2023-03-26T04:54:22.422Z,99.99
2023-03-26T04:57:43.752Z,99.99
2023-03-26T05:00:54.101Z,99.99
2023-03-26T05:03:58.703Z,99.99
2023-03-26T05:07:03.086Z,99.99
2023-03-26T05:10:17.106Z,99.99
2023-03-26T05:13:25.208Z,99.99
2023-03-26T05:16:31.857Z,99.99
2023-03-26T05:19:41.813Z,99.76
2023-03-26T05:22:44.538Z,99.57
2023-03-26T05:25:55.485Z,99.26
2023-03-26T05:29:00.373Z,99.08
2023-03-26T05:32:09.610Z,98.78
2023-03-26T05:35:12.692Z,98.61
2023-03-26T05:38:15.506Z,98.34
2023-03-26T05:41:18.474Z,98.08
2023-03-26T05:44:24.083Z,97.86
2023-03-26T05:47:27.375Z,97.67
2023-03-26T05:50:29.779Z,96.97
2023-03-26T05:53:35.358Z,96.13
2023-03-26T05:56:57.323Z,95.51
2023-03-26T06:00:18.553Z,94.84
2023-03-26T06:03:23.190Z,93.88
2023-03-26T06:06:46.941Z,92.97
2023-03-26T06:09:49.290Z,91.88
2023-03-26T06:12:51.593Z,91.39
2023-03-26T06:15:54.889Z,90.38
2023-03-26T06:19:11.907Z,89.16
2023-03-26T06:22:32.299Z,88.80
2023-03-26T06:25:53.022Z,88.47
2023-03-26T06:29:14.946Z,87.74
2023-03-26T06:32:36.318Z,86.71
2023-03-26T06:35:45.381Z,85.51
2023-03-26T06:38:48.891Z,84.41
2023-03-26T06:41:51.252Z,83.85
2023-03-26T06:45:12.026Z,83.05
2023-03-26T06:48:52.367Z,83.07
2023-03-26T06:52:13.130Z,81.32
2023-03-26T06:55:18.069Z,79.93
2023-03-26T06:58:36.156Z,80.14
2023-03-26T07:02:04.584Z,79.17
2023-03-26T07:05:25.572Z,77.87
2023-03-26T07:08:46.904Z,76.59
2023-03-26T07:12:04.258Z,75.33
2023-03-26T07:15:35.829Z,73.68
2023-03-26T07:18:55.357Z,73.75
2023-03-26T07:22:01.636Z,72.46
2023-03-26T07:25:30.449Z,71.22
2023-03-26T07:29:04.969Z,71.24
2023-03-26T07:32:47.538Z,70.16
2023-03-26T07:36:20.814Z,69.78
2023-03-26T07:40:02.797Z,68.85
2023-03-26T07:43:34.677Z,68.04
2023-03-26T07:46:37.426Z,67.33
2023-03-26T07:49:57.894Z,67.32
2023-03-26T07:53:21.337Z,65.60
2023-03-26T07:56:35.134Z,64.78
2023-03-26T07:59:58.545Z,63.46
2023-03-26T08:03:42.348Z,63.10
2023-03-26T08:07:24.876Z,66.08
2023-03-26T08:10:54.873Z,65.09
2023-03-26T08:14:06.877Z,65.20
2023-03-26T08:17:16.415Z,63.86
2023-03-26T08:20:31.194Z,64.17
2023-03-26T08:23:50.537Z,62.95
2023-03-26T08:26:58.965Z,63.36
2023-03-26T08:30:12.496Z,63.87
2023-03-26T08:33:18.251Z,63.03
2023-03-26T08:36:20.555Z,63.21
2023-03-26T08:39:22.825Z,64.57
2023-03-26T08:42:30.677Z,64.39
2023-03-26T08:45:54.513Z,64.92
2023-03-26T08:49:15.945Z,64.01
2023-03-26T08:52:30.026Z,63.87
2023-03-26T08:55:40.628Z,62.21
2023-03-26T08:59:14.328Z,60.67
2023-03-26T09:02:59.237Z,56.99
2023-03-26T09:06:20.294Z,53.06
2023-03-26T09:09:47.055Z,52.99
2023-03-26T09:13:26.050Z,50.45
2023-03-26T09:16:38.092Z,48.70
2023-03-26T09:20:33.683Z,47.77
2023-03-26T09:24:09.351Z,49.33
2023-03-26T09:27:20.596Z,49.43
2023-03-26T09:31:08.958Z,49.09
2023-03-26T09:34:30.251Z,49.43
2023-03-26T09:37:58.820Z,47.42
2023-03-26T09:41:09.346Z,48.85
2023-03-26T09:44:43.808Z,49.05
2023-03-26T09:48:11.401Z,47.41
2023-03-26T09:51:43.609Z,47.41
2023-03-26T09:55:26.102Z,48.72
2023-03-26T09:58:34.278Z,48.24
2023-03-26T10:01:44.393Z,48.00
2023-03-26T10:05:06.983Z,49.12
2023-03-26T10:08:47.598Z,47.08
2023-03-26T10:12:26.856Z,46.79
2023-03-26T10:15:47.488Z,46.06
2023-03-26T10:19:24.485Z,45.98
2023-03-26T10:22:29.606Z,45.75
2023-03-26T10:25:39.134Z,44.41
2023-03-26T10:28:53.338Z,43.03
2023-03-26T10:32:14.367Z,43.09
2023-03-26T10:35:43.648Z,42.44
2023-03-26T10:39:07.111Z,39.48
2023-03-26T10:42:41.706Z,37.44
2023-03-26T10:46:10.295Z,36.49
2023-03-26T10:49:12.554Z,36.99
2023-03-26T10:52:17.574Z,39.07
2023-03-26T10:55:26.373Z,37.95
2023-03-26T10:58:29.705Z,37.61
2023-03-26T11:01:57.429Z,38.14
2023-03-26T11:05:08.776Z,36.87
2023-03-26T11:08:20.867Z,36.28
2023-03-26T11:11:42.037Z,37.65
2023-03-26T11:15:07.330Z,37.13
2023-03-26T11:18:15.503Z,39.49
2023-03-26T11:21:20.808Z,37.86
2023-03-26T11:24:38.223Z,37.68
2023-03-26T11:27:49.427Z,38.05
2023-03-26T11:31:08.549Z,38.38
2023-03-26T11:34:47.319Z,36.89
2023-03-26T11:37:55.039Z,34.99
2023-03-26T11:40:59.884Z,35.15
2023-03-26T11:44:26.094Z,34.75
2023-03-26T11:47:48.564Z,34.13
2023-03-26T11:50:57.666Z,34.79
2023-03-26T11:54:01.707Z,35.19
2023-03-26T11:57:08.627Z,34.35
2023-03-26T12:00:18.294Z,32.47
2023-03-26T12:03:20.955Z,31.80
2023-03-26T12:06:27.585Z,32.88
2023-03-26T12:09:29.890Z,35.17
2023-03-26T12:12:42.433Z,33.05
2023-03-26T12:15:44.708Z,34.08
2023-03-26T12:18:58.743Z,33.83
2023-03-26T12:22:01.154Z,33.84
2023-03-26T12:25:06.357Z,35.55
2023-03-26T12:28:16.234Z,37.98
2023-03-26T12:31:19.489Z,40.17
2023-03-26T12:34:29.487Z,41.00
2023-03-26T12:37:37.072Z,42.17
2023-03-26T12:40:42.401Z,43.57
2023-03-26T12:44:55.725Z,44.44
2023-03-26T12:47:57.825Z,42.18
2023-03-26T12:51:19.574Z,42.50
2023-03-26T12:54:54.056Z,42.17
2023-03-26T12:58:15.478Z,41.83
2023-03-26T13:01:38.752Z,39.00
2023-03-26T13:05:05.657Z,35.88
2023-03-26T13:08:32.789Z,35.08
2023-03-26T13:11:43.916Z,34.20
2023-03-26T13:14:57.944Z,37.28
2023-03-26T13:18:17.030Z,37.74
2023-03-26T13:21:49.397Z,38.60
2023-03-26T13:25:11.018Z,36.15
2023-03-26T13:29:01.230Z,34.44
2023-03-26T13:32:22.165Z,35.11
2023-03-26T13:35:30.808Z,36.73
2023-03-26T13:38:35.948Z,34.37
2023-03-26T13:42:15.417Z,36.92
2023-03-26T13:45:57.538Z,36.92
2023-03-26T13:49:05.046Z,36.72
2023-03-26T13:52:12.411Z,37.14
2023-03-26T13:55:46.189Z,37.67
2023-03-26T13:58:58.610Z,36.41
2023-03-26T14:02:10.877Z,35.01
2023-03-26T14:05:35.445Z,34.35
2023-03-26T14:08:44.756Z,32.95
2023-03-26T14:12:21.049Z,33.71
2023-03-26T14:15:34.556Z,35.62
2023-03-26T14:19:18.101Z,32.81
2023-03-26T14:23:03.751Z,32.65
2023-03-26T14:26:06.063Z,32.04
2023-03-26T14:29:23.845Z,34.58
2023-03-26T14:33:10.797Z,35.35
2023-03-26T14:36:13.594Z,36.64
2023-03-26T14:39:30.665Z,37.30
2023-03-26T14:42:53.400Z,36.10
2023-03-26T14:46:14.661Z,36.16
2023-03-26T14:49:32.991Z,36.51
2023-03-26T14:53:00.894Z,37.05
2023-03-26T14:56:22.094Z,37.56
2023-03-26T14:59:42.229Z,37.97
2023-03-26T15:03:09.179Z,38.03
2023-03-26T15:06:21.144Z,36.31
2023-03-26T15:09:57.170Z,34.62
2023-03-26T15:13:41.050Z,32.26
2023-03-26T15:17:14.294Z,32.58
2023-03-26T15:20:39.421Z,33.12
2023-03-26T15:24:09.252Z,32.74
2023-03-26T15:27:29.775Z,33.40
2023-03-26T15:30:56.830Z,34.62
2023-03-26T15:34:30.505Z,36.68
2023-03-26T15:37:46.902Z,37.32
2023-03-26T15:40:59.005Z,38.11
2023-03-26T15:44:23.272Z,38.58
2023-03-26T15:47:35.855Z,39.80
2023-03-26T15:50:58.809Z,39.76
2023-03-26T15:54:39.542Z,40.31
2023-03-26T15:57:52.550Z,40.68
2023-03-26T16:01:21.131Z,41.03
2023-03-26T16:04:35.291Z,41.56
2023-03-26T16:08:28.057Z,41.69
2023-03-26T16:11:58.757Z,42.41
2023-03-26T16:15:11.688Z,42.51
2023-03-26T16:18:19.242Z,43.04
2023-03-26T16:21:32.817Z,42.53
2023-03-26T16:24:42.434Z,43.65
2023-03-26T16:27:45.344Z,43.33
2023-03-26T16:31:10.793Z,43.66
2023-03-26T16:34:38.807Z,43.86
2023-03-26T16:37:50.063Z,43.88
2023-03-26T16:41:06.091Z,44.59
2023-03-26T16:44:26.867Z,44.28
2023-03-26T16:47:44.705Z,44.40
2023-03-26T16:51:09.121Z,44.53
2023-03-26T16:54:36.186Z,44.20
2023-03-26T16:58:42.236Z,44.11
2023-03-26T17:02:04.750Z,44.32
2023-03-26T17:05:44.494Z,44.35
2023-03-26T17:09:00.414Z,44.46
2023-03-26T17:12:14.294Z,44.31
2023-03-26T17:15:42.286Z,44.58
2023-03-26T17:19:01.021Z,44.88
2023-03-26T17:22:19.349Z,45.63
2023-03-26T17:25:42.622Z,45.44
2023-03-26T17:29:10.950Z,45.52
2023-03-26T17:32:15.189Z,46.50
2023-03-26T17:35:46.154Z,46.53
2023-03-26T17:38:48.473Z,46.08
2023-03-26T17:41:55.639Z,46.58
2023-03-26T17:44:59.296Z,46.97
2023-03-26T17:48:10.730Z,47.35
2023-03-26T17:51:21.005Z,47.73
2023-03-26T17:54:28.507Z,48.31
2023-03-26T17:57:42.679Z,48.68
2023-03-26T18:00:49.769Z,48.84
2023-03-26T18:03:56.479Z,49.12
2023-03-26T18:07:07.833Z,49.14
2023-03-26T18:10:17.920Z,49.36
2023-03-26T18:14:01.535Z,49.50
2023-03-26T18:17:03.967Z,49.09
2023-03-26T18:20:07.204Z,49.16
2023-03-26T18:23:12.377Z,49.27
2023-03-26T18:26:17.412Z,49.91
2023-03-26T18:29:24.086Z,49.58
2023-03-26T18:32:31.219Z,49.97
2023-03-26T18:35:50.834Z,50.48
2023-03-26T18:38:59.347Z,50.08
2023-03-26T18:42:01.622Z,50.30
2023-03-26T18:45:24.950Z,49.89
2023-03-26T18:48:29.010Z,49.58
2023-03-26T18:51:32.017Z,49.74
2023-03-26T18:54:36.474Z,49.29
2023-03-26T18:57:38.817Z,49.64
2023-03-26T19:00:42.734Z,49.88
2023-03-26T19:03:45.337Z,49.43
2023-03-26T19:06:47.907Z,49.95
2023-03-26T19:09:52.636Z,50.26
2023-03-26T19:13:00.919Z,50.18
2023-03-26T19:16:09.420Z,49.62
2023-03-26T19:19:18.902Z,50.13
2023-03-26T19:22:22.967Z,50.10
2023-03-26T19:25:33.104Z,50.42
2023-03-26T19:28:41.896Z,50.10
2023-03-26T19:31:44.160Z,50.50
2023-03-26T19:34:48.164Z,50.36
2023-03-26T19:37:51.854Z,50.73
2023-03-26T19:40:59.190Z,53.77
2023-03-26T19:44:06.074Z,55.47
2023-03-26T19:47:14.487Z,51.91
2023-03-26T19:50:28.463Z,52.28
2023-03-26T19:53:37.376Z,52.44
2023-03-26T19:56:39.660Z,54.14
2023-03-26T19:59:41.919Z,53.90
2023-03-26T20:02:48.777Z,55.05
2023-03-26T20:05:51.943Z,55.26
2023-03-26T20:08:54.272Z,59.89
2023-03-26T20:11:56.490Z,58.06
2023-03-26T20:14:58.776Z,56.93
2023-03-26T20:18:01.217Z,54.73
2023-03-26T20:21:10.570Z,54.78
2023-03-26T20:24:16.003Z,58.50
2023-03-26T20:27:19.260Z,59.16
2023-03-26T20:30:36.811Z,60.39
2023-03-26T20:33:39.988Z,61.54
2023-03-26T20:36:42.289Z,64.87
2023-03-26T20:39:45.673Z,69.71
2023-03-26T20:42:48.152Z,73.82
2023-03-26T20:45:50.744Z,76.02
2023-03-26T20:48:54.897Z,78.13
2023-03-26T20:51:59.637Z,79.95
2023-03-26T20:55:01.903Z,80.18
2023-03-26T20:58:04.223Z,81.55
2023-03-26T21:01:06.958Z,82.56
2023-03-26T21:04:09.227Z,82.94
2023-03-26T21:07:18.149Z,84.26
2023-03-26T21:10:21.670Z,86.48
2023-03-26T21:13:45.092Z,86.29
2023-03-26T21:16:47.681Z,88.35
2023-03-26T21:19:50.505Z,89.12
2023-03-26T21:23:30.265Z,90.60
2023-03-26T21:26:53.410Z,91.40
2023-03-26T21:29:56.238Z,92.23
2023-03-26T21:32:59.707Z,92.09
2023-03-26T21:36:02.219Z,92.07
2023-03-26T21:39:06.560Z,92.45
2023-03-26T21:42:10.554Z,91.85
2023-03-26T21:45:13.795Z,91.72
2023-03-26T21:48:16.826Z,90.35
2023-03-26T21:51:19.482Z,90.65
2023-03-26T21:54:30.820Z,90.67
2023-03-26T21:57:48.006Z,90.44
2023-03-26T22:00:53.328Z,90.10
2023-03-26T22:04:10.232Z,89.40
2023-03-26T22:07:17.618Z,89.30
2023-03-26T22:10:20.408Z,89.89
2023-03-26T22:13:22.719Z,89.81
2023-03-26T22:16:25.320Z,89.32
2023-03-26T22:19:29.143Z,89.44
2023-03-26T22:22:32.646Z,90.05
2023-03-26T22:25:35.356Z,89.79
2023-03-26T22:28:37.572Z,90.34
2023-03-26T22:31:41.416Z,90.48
2023-03-26T22:34:45.221Z,90.02
2023-03-26T22:37:47.511Z,89.57
2023-03-26T22:40:57.745Z,91.02
2023-03-26T22:44:09.466Z,90.87
2023-03-26T22:47:17.039Z,90.51
2023-03-26T22:50:19.681Z,90.22
2023-03-26T22:53:22.305Z,89.65
2023-03-26T22:56:24.485Z,89.14
2023-03-26T22:59:26.721Z,88.99
2023-03-26T23:02:28.919Z,89.51
2023-03-26T23:05:31.337Z,89.91
2023-03-26T23:08:35.092Z,90.17
2023-03-26T23:11:37.423Z,90.05
2023-03-26T23:14:39.669Z,89.87
2023-03-26T23:17:42.361Z,89.95
2023-03-26T23:20:55.495Z,89.83
2023-03-26T23:23:58.369Z,89.93
2023-03-26T23:27:00.607Z,89.99
2023-03-26T23:30:04.646Z,90.60
2023-03-26T23:33:06.890Z,90.73
2023-03-26T23:36:10.025Z,89.83
2023-03-26T23:39:12.253Z,91.04
2023-03-26T23:42:14.492Z,91.26
2023-03-26T23:45:18.773Z,91.02
2023-03-26T23:48:23.956Z,90.59
2023-03-26T23:51:26.159Z,91.19
2023-03-26T23:54:30.078Z,92.06
2023-03-26T23:57:32.285Z,92.46
